Jacksonville, Oregon
Current Conditions -  °F | °C
As of 1:53 AM on Monday 22 Dec 2014 (Local Time) from KMFR Reporting Station
Overcast Overcast  
Wind Chill: 54°   Ceiling: 3800
Heat Index: 54°   Visibility: 10mi
Dew Point: 51°   Wind: 0mph
Humidity: 90%   Direction: NA
Pressure: 30.25"   Gusts: NA
Location:  42.31°N, 122.97°W
Report Text: KMFR 220953Z AUTO 00000KT 10SM BKN038 OVC047 12/11 A3025 RMK AO2 SLP242 T01220106
Loading
Personal Weather Stations






























Interactive Weather Map New forecast layout! Learn more

10-Day Weather Forecast

Advertisements
Track Severe Weather on mobile